Portada
METAR-TAF:

METAR-TAF

Aeroports :

Nouméa La Tontouta, Nova Caledònia

latitud: 22-01S, longitud: 166-13E, altitud: 16 m

Observació

L'informe es va fer fa 32 minuts, a les 20:00 UTC
Vent 2 kt amb direcció variable
Temperatura 23°C
Humitat 61%
Pressió 1013 hPa
Visibilitat 10 km o més
sense núvols per sota de 1500 mi sense presència de cumulonimbus.

METAR: NWWW 192000Z AUTO VRB02KT CAVOK 23/15 Q1013 NOSIG

Hora: 07:32 (20:32 UTC)

Pronòstic

L'informe es va fer fa 3 hores i 32 minuts, a les 17:00 UTC
Pronòstic vàlid del 19 a les 18 UTC al 20 a les 18 UTC
Vent 2 kt amb direcció variable
Visibilitat 10 km o més
Escasses núvols a una alçada de 3500 ft
Evolucionant progressivament
l' 19 a les 23 UTC al 20 a les 01 UTC
Vent 15 kt del Sud
Evolucionant progressivament
l' 20 a les 10 UTC al 20 a les 12 UTC
Vent 2 kt amb direcció variable

TAF: NWWW 191700Z 1918/2018 VRB02KT 9999 FEW035 BECMG 1923/2001 18015KT BECMG 2010/2012 VRB02KT

Observacions i pronòstics meteorològics de més de 4000 aeroports (METAR i TAF).

Les estacions disponibles són els punts grocs i vermells al mapa.

Posi el ratolí al punt desitjat per veure el nom de l'estació.

Feu clic per veure les observacions i els pronòstics meteorològics.

Per canviar el mapa: feu clic els botons verds amb una creu de color negre per apropar; al botó verd amb un guió per allunyar la imatge; o en les fletxes verdes per a mapes adjacents.


METAR-TAF: